SCO37SM EGPH-EGPF

Flight info

Callsign SCO37SM
Flight time N/A
Altitude 8000
Route GRICE
Aircraft A320/M-SDE3FGHIRWY/LB1

Departure

Time 2026-05-01 10:12
Airport Edinburgh Airport (EGPH)

Arrival

Time N/A
Airport Glasgow Airport (EGPF)
Time Latitude Longitude Altitude Speed Heading
2026-05-01 09:32 55.94906 -3.36496 114 ft 0 kts 148°
2026-05-01 09:35 55.94906 -3.36497 114 ft 0 kts 148°
2026-05-01 09:59 55.94911 -3.36503 116 ft 4 kts 147°
2026-05-01 09:59 55.94934 -3.36526 114 ft 4 kts 147°
2026-05-01 10:00 55.94950 -3.36556 113 ft 4 kts 97°
2026-05-01 10:00 55.94945 -3.36599 114 ft 4 kts 60°
2026-05-01 10:00 55.94942 -3.36608 114 ft 1 kts 58°
2026-05-01 10:04 55.94943 -3.36608 116 ft 0 kts 58°
2026-05-01 10:05 55.94944 -3.36604 116 ft 1 kts 58°
2026-05-01 10:05 55.94946 -3.36599 116 ft 2 kts 58°
2026-05-01 10:05 55.94985 -3.36484 114 ft 15 kts 58°
2026-05-01 10:06 55.95068 -3.36400 116 ft 16 kts 359°
2026-05-01 10:06 55.95131 -3.36293 115 ft 0 kts 59°
2026-05-01 10:06 55.95136 -3.36277 116 ft 9 kts 59°
2026-05-01 10:06 55.95201 -3.36080 113 ft 16 kts 58°
2026-05-01 10:07 55.95262 -3.35904 113 ft 18 kts 58°
2026-05-01 10:07 55.95333 -3.35693 115 ft 22 kts 59°
2026-05-01 10:07 55.95409 -3.35469 112 ft 17 kts 59°
2026-05-01 10:07 55.95454 -3.35406 114 ft 6 kts 339°
2026-05-01 10:08 55.95501 -3.35442 113 ft 0 kts 329°
2026-05-01 10:08 55.95568 -3.35518 113 ft 15 kts 314°
2026-05-01 10:09 55.95556 -3.35606 113 ft 6 kts 234°
2026-05-01 10:09 55.95544 -3.35643 113 ft 0 kts 240°
2026-05-01 10:11 55.95500 -3.35776 113 ft 51 kts 239°
2026-05-01 10:11 55.95139 -3.36838 112 ft 143 kts 239°
2026-05-01 10:12 55.94526 -3.38604 569 ft 178 kts 238°
2026-05-01 10:12 55.93880 -3.40456 1676 ft 180 kts 237°
2026-05-01 10:12 55.92410 -3.44710 3186 ft 227 kts 237°
2026-05-01 10:13 55.91536 -3.47233 4152 ft 250 kts 236°
2026-05-01 10:13 55.90612 -3.49912 5523 ft 256 kts 237°
2026-05-01 10:13 55.90011 -3.52920 6865 ft 268 kts 262°
2026-05-01 10:14 55.91642 -3.58896 7845 ft 293 kts 324°
2026-05-01 10:14 55.93592 -3.59981 7981 ft 300 kts 356°
2026-05-01 10:14 55.95682 -3.59933 8009 ft 301 kts 358°
2026-05-01 10:14 55.97762 -3.59598 8054 ft 301 kts 13°
2026-05-01 10:15 55.99704 -3.58196 8146 ft 302 kts 32°
2026-05-01 10:15 56.01427 -3.56048 8166 ft 302 kts 37°
2026-05-01 10:15 56.03134 -3.53853 8166 ft 302 kts 37°
2026-05-01 10:15 56.04839 -3.51653 8166 ft 302 kts 39°
2026-05-01 10:16 56.06185 -3.48860 8163 ft 296 kts 68°
2026-05-01 10:16 56.06694 -3.45345 8171 ft 292 kts 83°
2026-05-01 10:16 56.09073 -3.39693 8148 ft 301 kts 21°
2026-05-01 10:17 56.11117 -3.39267 8150 ft 297 kts 348°
2026-05-01 10:17 56.14755 -3.42355 8163 ft 288 kts 316°
2026-05-01 10:17 56.16060 -3.45018 8155 ft 282 kts 296°
2026-05-01 10:18 56.17268 -3.51575 8153 ft 277 kts 280°
2026-05-01 10:18 56.17747 -3.54924 8151 ft 278 kts 280°
2026-05-01 10:18 56.18218 -3.58291 8151 ft 278 kts 279°
2026-05-01 10:19 56.18688 -3.61661 8154 ft 279 kts 279°
2026-05-01 10:19 56.19163 -3.65039 8158 ft 279 kts 280°
2026-05-01 10:19 56.19507 -3.67469 8160 ft 279 kts 280°
2026-05-01 10:20 56.20033 -3.71865 8155 ft 275 kts 268°
2026-05-01 10:20 56.19749 -3.75205 8048 ft 270 kts 251°
2026-05-01 10:20 56.19222 -3.78423 7798 ft 267 kts 250°
2026-05-01 10:20 56.18676 -3.81600 7546 ft 265 kts 249°
2026-05-01 10:21 56.18127 -3.84751 7354 ft 264 kts 249°
2026-05-01 10:21 56.17028 -3.91032 7054 ft 263 kts 249°
2026-05-01 10:21 56.16477 -3.94158 6956 ft 262 kts 249°
2026-05-01 10:22 56.15375 -4.00390 6768 ft 261 kts 249°
2026-05-01 10:22 56.14286 -4.06590 6547 ft 260 kts 249°
2026-05-01 10:23 56.13748 -4.09638 6427 ft 260 kts 249°
2026-05-01 10:23 56.12657 -4.15808 6164 ft 259 kts 249°
2026-05-01 10:23 56.12112 -4.18889 6032 ft 259 kts 249°
2026-05-01 10:24 56.11026 -4.25051 5783 ft 260 kts 249°
2026-05-01 10:24 56.09939 -4.31226 5529 ft 260 kts 249°
2026-05-01 10:25 56.08852 -4.37401 5280 ft 260 kts 249°
2026-05-01 10:25 56.07762 -4.43569 5028 ft 260 kts 249°
2026-05-01 10:26 56.07218 -4.46652 4910 ft 260 kts 249°
2026-05-01 10:26 56.06673 -4.49740 4765 ft 260 kts 249°
2026-05-01 10:26 56.05247 -4.55576 4526 ft 254 kts 230°
2026-05-01 10:27 56.03120 -4.60591 4270 ft 253 kts 229°
2026-05-01 10:27 56.00977 -4.65583 4017 ft 253 kts 229°
2026-05-01 10:28 55.99903 -4.68070 3889 ft 253 kts 229°
2026-05-01 10:28 55.97753 -4.73037 3630 ft 253 kts 229°
2026-05-01 10:28 55.96676 -4.75521 3511 ft 253 kts 229°
2026-05-01 10:29 55.94557 -4.80405 3161 ft 237 kts 229°
2026-05-01 10:29 55.93572 -4.82661 3035 ft 225 kts 229°
2026-05-01 10:30 55.91277 -4.85635 2804 ft 199 kts 180°